createdAt,value
2023-03-27T00:01:11.905Z,101114.75
2023-03-27T00:03:40.161Z,101112.44
2023-03-27T00:06:12.355Z,101111.31
2023-03-27T00:08:39.142Z,101107.25
2023-03-27T00:11:07.972Z,101118.97
2023-03-27T00:13:36.386Z,101121.84
2023-03-27T00:16:16.209Z,101114.41
2023-03-27T00:18:42.897Z,101121.28
2023-03-27T00:21:09.586Z,101126.94
2023-03-27T00:23:37.401Z,101124.50
2023-03-27T00:26:04.345Z,101122.84
2023-03-27T00:28:31.445Z,101125.63
2023-03-27T00:30:59.449Z,101121.19
2023-03-27T00:33:27.029Z,101133.72
2023-03-27T00:35:53.811Z,101128.16
2023-03-27T00:38:21.114Z,101122.19
2023-03-27T00:40:49.239Z,101136.56
2023-03-27T00:43:22.175Z,101126.78
2023-03-27T00:45:52.683Z,101124.38
2023-03-27T00:48:20.721Z,101127.09
2023-03-27T00:50:49.669Z,101135.44
2023-03-27T00:53:20.698Z,101133.91
2023-03-27T00:55:50.178Z,101139.53
2023-03-27T00:58:28.890Z,101133.38
2023-03-27T01:00:57.295Z,101136.13
2023-03-27T01:03:31.614Z,101142.09
2023-03-27T01:06:01.574Z,101125.78
2023-03-27T01:08:33.782Z,101133.09
2023-03-27T01:11:11.320Z,101133.91
2023-03-27T01:14:04.210Z,101135.47
2023-03-27T01:17:01.797Z,101137.28
2023-03-27T01:20:22.951Z,101131.88
2023-03-27T01:23:08.442Z,101133.81
2023-03-27T01:25:45.762Z,101132.72
2023-03-27T01:28:27.432Z,101133.63
2023-03-27T01:31:32.812Z,101133.84
2023-03-27T01:34:14.671Z,101134.03
2023-03-27T01:37:06.521Z,101126.97
2023-03-27T01:40:07.010Z,101124.50
2023-03-27T01:42:37.322Z,101134.38
2023-03-27T01:45:24.792Z,101136.78
2023-03-27T01:48:04.843Z,101140.63
2023-03-27T01:50:44.958Z,101130.13
2023-03-27T01:53:24.129Z,101140.69
2023-03-27T01:55:58.283Z,101132.59
2023-03-27T01:58:33.288Z,101138.50
2023-03-27T02:01:01.835Z,101145.69
2023-03-27T02:03:42.000Z,101138.44
2023-03-27T02:06:23.339Z,101140.75
2023-03-27T02:09:11.886Z,101144.50
2023-03-27T02:11:44.772Z,101140.09
2023-03-27T02:14:17.365Z,101138.44
2023-03-27T02:16:47.596Z,101152.78
2023-03-27T02:19:22.189Z,101150.31
2023-03-27T02:21:49.613Z,101149.47
2023-03-27T02:24:19.515Z,101151.91
2023-03-27T02:26:50.457Z,101139.72
2023-03-27T02:29:20.185Z,101143.47
2023-03-27T02:32:17.532Z,101141.69
2023-03-27T02:34:57.047Z,101142.88
2023-03-27T02:37:35.101Z,101146.41
2023-03-27T02:40:10.171Z,101154.44
2023-03-27T02:43:13.062Z,101158.06
2023-03-27T02:45:57.858Z,101155.16
2023-03-27T02:48:33.775Z,101159.03
2023-03-27T02:51:06.650Z,101159.13
2023-03-27T02:53:42.410Z,101163.44
2023-03-27T02:56:11.937Z,101158.28
2023-03-27T02:58:57.262Z,101162.81
2023-03-27T03:01:30.747Z,101155.78
2023-03-27T03:04:01.532Z,101158.78
2023-03-27T03:06:31.084Z,101157.09
2023-03-27T03:09:03.716Z,101165.63
2023-03-27T03:11:31.120Z,101167.88
2023-03-27T03:13:58.112Z,101168.53
2023-03-27T03:16:25.418Z,101173.88
2023-03-27T03:18:52.100Z,101172.19
2023-03-27T03:21:18.821Z,101166.00
2023-03-27T03:23:58.284Z,101170.81
2023-03-27T03:26:27.014Z,101178.97
2023-03-27T03:29:00.487Z,101175.41
2023-03-27T03:31:28.277Z,101175.78
2023-03-27T03:33:55.018Z,101180.06
2023-03-27T03:36:21.713Z,101186.34
2023-03-27T03:38:48.478Z,101180.16
2023-03-27T03:41:15.259Z,101187.25
2023-03-27T03:43:41.915Z,101196.94
2023-03-27T03:46:08.572Z,101186.25
2023-03-27T03:48:35.278Z,101191.56
2023-03-27T03:51:01.879Z,101188.84
2023-03-27T03:53:28.613Z,101192.19
2023-03-27T03:55:56.017Z,101194.09
2023-03-27T03:58:34.909Z,101191.50
2023-03-27T04:01:02.945Z,101185.94
2023-03-27T04:03:32.395Z,101190.56
2023-03-27T04:06:05.483Z,101195.16
2023-03-27T04:08:32.997Z,101200.44
2023-03-27T04:10:59.857Z,101213.25
2023-03-27T04:13:26.610Z,101217.75
2023-03-27T04:15:54.018Z,101224.09
2023-03-27T04:18:20.913Z,101222.53
2023-03-27T04:20:50.545Z,101228.00
2023-03-27T04:23:21.174Z,101226.47
2023-03-27T04:25:47.959Z,101230.97
2023-03-27T04:28:16.657Z,101226.59
2023-03-27T04:30:44.339Z,101225.84
2023-03-27T04:33:20.712Z,101224.22
2023-03-27T04:36:06.745Z,101229.41
2023-03-27T04:38:38.143Z,101223.16
2023-03-27T04:41:06.195Z,101221.47
2023-03-27T04:43:36.696Z,101227.59
2023-03-27T04:46:07.610Z,101226.97
2023-03-27T04:48:35.075Z,101231.31
2023-03-27T04:51:01.810Z,101235.03
2023-03-27T04:53:30.447Z,101233.44
2023-03-27T04:55:57.324Z,101234.34
2023-03-27T04:58:25.835Z,101234.59
2023-03-27T05:00:56.089Z,101227.47
2023-03-27T05:03:24.078Z,101231.09
2023-03-27T05:05:51.027Z,101234.09
2023-03-27T05:08:18.711Z,101231.38
2023-03-27T05:10:46.712Z,101234.81
2023-03-27T05:13:13.614Z,101237.47
2023-03-27T05:15:40.396Z,101235.59
2023-03-27T05:18:07.485Z,101232.28
2023-03-27T05:20:35.351Z,101240.28
2023-03-27T05:23:02.429Z,101246.34
2023-03-27T05:25:31.011Z,101241.00
2023-03-27T05:27:58.104Z,101241.91
2023-03-27T05:30:26.871Z,101244.50
2023-03-27T05:32:54.122Z,101249.91
2023-03-27T05:35:23.795Z,101243.53
2023-03-27T05:37:52.839Z,101248.59
2023-03-27T05:40:31.488Z,101244.09
2023-03-27T05:42:58.149Z,101245.84
2023-03-27T05:45:24.819Z,101245.72
2023-03-27T05:47:59.573Z,101241.09
2023-03-27T05:50:29.166Z,101242.63
2023-03-27T05:52:57.736Z,101247.75
2023-03-27T05:55:27.435Z,101236.72
2023-03-27T05:57:54.720Z,101232.88
2023-03-27T06:00:27.893Z,101243.78
2023-03-27T06:02:57.437Z,101232.34
2023-03-27T06:05:26.511Z,101243.63
2023-03-27T06:07:53.559Z,101239.75
2023-03-27T06:10:20.696Z,101234.06
2023-03-27T06:12:50.619Z,101231.63
2023-03-27T06:15:17.368Z,101227.47
2023-03-27T06:17:46.864Z,101228.06
2023-03-27T06:20:15.352Z,101235.50
2023-03-27T06:22:51.050Z,101236.81
2023-03-27T06:25:20.902Z,101241.84
2023-03-27T06:27:49.736Z,101246.22
2023-03-27T06:30:19.463Z,101244.16
2023-03-27T06:32:57.757Z,101248.91
2023-03-27T06:35:26.937Z,101231.72
2023-03-27T06:37:55.893Z,101242.53
2023-03-27T06:40:24.939Z,101243.59
2023-03-27T06:42:57.285Z,101251.41
2023-03-27T06:45:26.339Z,101265.53
2023-03-27T06:48:17.991Z,101269.06
2023-03-27T06:50:47.363Z,101271.19
2023-03-27T06:55:47.362Z,101283.09
2023-03-27T06:58:14.094Z,101286.56
2023-03-27T07:00:41.337Z,101297.81
2023-03-27T07:03:10.394Z,101303.72
2023-03-27T07:05:39.033Z,101291.97
2023-03-27T07:08:18.960Z,101307.09
2023-03-27T07:11:00.037Z,101306.69
2023-03-27T07:13:34.866Z,101309.97
2023-03-27T07:16:01.701Z,101311.03
2023-03-27T07:18:28.420Z,101322.13
2023-03-27T07:20:55.351Z,101321.19
2023-03-27T07:23:22.275Z,101308.94
2023-03-27T07:25:50.278Z,101317.81
2023-03-27T07:28:18.479Z,101331.84
2023-03-27T07:30:45.510Z,101330.66
2023-03-27T07:33:13.023Z,101331.38
2023-03-27T07:35:48.612Z,101336.09
2023-03-27T07:38:16.734Z,101332.63
2023-03-27T07:40:45.974Z,101349.25
2023-03-27T07:43:13.331Z,101344.25
2023-03-27T07:45:41.674Z,101350.06
2023-03-27T07:48:17.005Z,101351.22
2023-03-27T07:50:45.086Z,101349.84
2023-03-27T07:53:33.975Z,101364.88
2023-03-27T07:56:01.322Z,101356.72
2023-03-27T07:58:28.225Z,101362.81
2023-03-27T08:01:02.285Z,101369.72
2023-03-27T08:03:30.465Z,101372.09
2023-03-27T08:05:59.634Z,101377.38
2023-03-27T08:08:27.301Z,101383.28
2023-03-27T08:10:55.534Z,101387.50
2023-03-27T08:13:22.567Z,101388.25
2023-03-27T08:15:49.689Z,101392.88
2023-03-27T08:18:16.421Z,101391.13
2023-03-27T08:20:43.177Z,101401.53
2023-03-27T08:23:09.849Z,101399.28
2023-03-27T08:25:36.518Z,101409.81
2023-03-27T08:28:03.386Z,101407.94
2023-03-27T08:30:30.650Z,101398.34
2023-03-27T08:32:58.554Z,101409.84
2023-03-27T08:35:25.720Z,101409.41
2023-03-27T08:37:53.943Z,101414.81
2023-03-27T08:40:26.186Z,101397.34
2023-03-27T08:42:57.249Z,101401.00
2023-03-27T08:45:31.909Z,101402.53
2023-03-27T08:48:07.353Z,101402.75
2023-03-27T08:50:48.321Z,101400.28
2023-03-27T08:53:41.126Z,101403.00
2023-03-27T08:56:14.466Z,101402.84
2023-03-27T08:58:42.712Z,101404.69
2023-03-27T09:01:19.131Z,101412.44
2023-03-27T09:03:57.016Z,101411.91
2023-03-27T09:06:25.877Z,101401.44
2023-03-27T09:09:11.553Z,101386.16
2023-03-27T09:12:11.688Z,101371.63
2023-03-27T09:14:52.627Z,101371.72
2023-03-27T09:17:38.739Z,101362.69
2023-03-27T09:20:17.666Z,101352.44
2023-03-27T09:22:50.051Z,101356.56
2023-03-27T09:25:28.985Z,101340.31
2023-03-27T09:27:56.265Z,101349.78
2023-03-27T09:30:30.381Z,101343.09
2023-03-27T09:33:01.836Z,101350.69
2023-03-27T09:35:29.214Z,101362.09
2023-03-27T09:38:02.681Z,101358.47
2023-03-27T09:40:45.094Z,101354.09
2023-03-27T09:43:20.137Z,101368.66
2023-03-27T09:45:53.102Z,101371.44
2023-03-27T09:48:40.814Z,101376.34
2023-03-27T09:51:44.193Z,101386.34
2023-03-27T09:54:14.248Z,101382.50
2023-03-27T09:57:00.131Z,101399.41
2023-03-27T09:59:26.842Z,101427.63
2023-03-27T10:01:57.985Z,101452.06
2023-03-27T10:04:26.542Z,101536.38
2023-03-27T10:07:06.926Z,101569.25
2023-03-27T10:09:39.097Z,101579.66
2023-03-27T10:12:06.299Z,101567.47
2023-03-27T10:14:43.231Z,101561.94
2023-03-27T10:17:22.125Z,101555.94
2023-03-27T10:19:53.023Z,101548.63
2023-03-27T10:22:31.468Z,101552.78
2023-03-27T10:25:00.773Z,101546.81
2023-03-27T10:27:36.382Z,101537.81
2023-03-27T10:30:23.120Z,101545.47
2023-03-27T10:32:49.884Z,101543.53
2023-03-27T10:35:45.693Z,101533.16
2023-03-27T10:38:17.660Z,101529.53
2023-03-27T10:40:49.952Z,101524.19
2023-03-27T10:43:39.868Z,101511.91
2023-03-27T10:46:15.125Z,101516.81
2023-03-27T10:49:06.333Z,101497.38
2023-03-27T10:51:50.972Z,101492.91
2023-03-27T10:54:37.815Z,101498.53
2023-03-27T10:57:11.320Z,101496.44
2023-03-27T11:00:13.608Z,101488.19
2023-03-27T11:02:49.455Z,101484.84
2023-03-27T11:05:26.326Z,101471.72
2023-03-27T11:08:02.923Z,101470.50
2023-03-27T11:10:44.733Z,101455.78
2023-03-27T11:13:23.325Z,101460.06
2023-03-27T11:15:55.684Z,101464.53
2023-03-27T11:18:54.488Z,101481.19
2023-03-27T11:21:50.305Z,101469.06
2023-03-27T11:24:32.293Z,101435.81
2023-03-27T11:27:06.305Z,101428.06
2023-03-27T11:29:39.915Z,101424.34
2023-03-27T11:32:19.750Z,101414.44
2023-03-27T11:35:06.926Z,101444.13
2023-03-27T11:37:39.776Z,101426.66
2023-03-27T11:40:20.145Z,101437.59
2023-03-27T11:42:47.483Z,101447.91
2023-03-27T11:45:18.201Z,101486.22
2023-03-27T11:47:47.868Z,101488.00
2023-03-27T11:50:26.690Z,101487.81
2023-03-27T11:52:53.523Z,101493.66
2023-03-27T11:55:33.539Z,101512.88
2023-03-27T11:58:19.038Z,101517.28
2023-03-27T12:01:09.889Z,101530.78
2023-03-27T12:04:01.052Z,101543.31
2023-03-27T12:07:12.306Z,101543.31
2023-03-27T12:09:58.156Z,101541.38
2023-03-27T12:12:38.650Z,101531.56
2023-03-27T12:15:14.299Z,101539.50
2023-03-27T12:17:54.211Z,101533.44
2023-03-27T12:20:53.802Z,101521.72
2023-03-27T12:23:37.794Z,101505.66
2023-03-27T12:26:15.759Z,101517.00
2023-03-27T12:28:45.643Z,101505.91
2023-03-27T12:31:27.283Z,101502.44
2023-03-27T12:34:26.574Z,101500.34
2023-03-27T12:36:53.748Z,101477.72
2023-03-27T12:39:25.022Z,101485.59
2023-03-27T12:41:52.375Z,101491.13
2023-03-27T12:44:27.941Z,101497.31
2023-03-27T12:47:29.277Z,101453.97
2023-03-27T12:50:01.078Z,101471.41
2023-03-27T12:52:28.558Z,101434.28
2023-03-27T12:55:13.744Z,101424.63
2023-03-27T12:57:46.036Z,101434.53
2023-03-27T13:00:21.766Z,101436.81
2023-03-27T13:02:58.928Z,101429.69
2023-03-27T13:05:31.564Z,101425.66
2023-03-27T13:08:24.078Z,101444.50
2023-03-27T13:10:57.201Z,101447.31
2023-03-27T13:13:45.626Z,101440.38
2023-03-27T13:16:34.092Z,101452.50
2023-03-27T13:19:51.967Z,101474.34
2023-03-27T13:22:18.510Z,101480.78
2023-03-27T13:25:22.872Z,101460.31
2023-03-27T13:27:58.552Z,101454.75
2023-03-27T13:30:46.690Z,101423.97
2023-03-27T13:33:31.735Z,101420.44
2023-03-27T13:35:58.733Z,101390.78
2023-03-27T13:38:53.408Z,101384.94
2023-03-27T13:41:45.191Z,101387.50
2023-03-27T13:44:22.388Z,101388.81
2023-03-27T13:46:57.158Z,101407.84
2023-03-27T13:49:45.666Z,101412.56
2023-03-27T13:52:35.703Z,101423.59
2023-03-27T13:55:28.504Z,101437.50
2023-03-27T13:58:13.682Z,101420.09
2023-03-27T14:01:02.106Z,101431.69
2023-03-27T14:03:48.535Z,101416.34
2023-03-27T14:06:39.695Z,101373.03
2023-03-27T14:09:32.024Z,101362.88
2023-03-27T14:12:16.826Z,101359.69
2023-03-27T14:15:02.301Z,101387.50
2023-03-27T14:17:52.352Z,101382.47
2023-03-27T14:20:26.048Z,101380.72
2023-03-27T14:23:04.606Z,101387.63
2023-03-27T14:25:38.223Z,101409.00
2023-03-27T14:28:09.255Z,101413.66
2023-03-27T14:30:47.304Z,101456.75
2023-03-27T14:33:19.887Z,101442.78
2023-03-27T14:35:54.764Z,101451.53
2023-03-27T14:38:25.522Z,101433.47
2023-03-27T14:40:58.037Z,101442.72
2023-03-27T14:43:27.764Z,101446.59
2023-03-27T14:45:59.993Z,101448.59
2023-03-27T14:48:37.353Z,101464.53
2023-03-27T14:51:13.574Z,101443.09
2023-03-27T14:53:45.278Z,101464.94
2023-03-27T14:56:28.712Z,101474.81
2023-03-27T14:59:02.110Z,101507.84
2023-03-27T15:01:31.955Z,101505.41
2023-03-27T15:04:03.129Z,101515.50
2023-03-27T15:06:36.265Z,101519.03
2023-03-27T15:09:11.280Z,101524.69
2023-03-27T15:11:40.191Z,101489.44
2023-03-27T15:14:16.719Z,101455.97
2023-03-27T15:16:49.789Z,101460.69
2023-03-27T15:19:23.089Z,101443.44
2023-03-27T15:21:59.079Z,101449.19
2023-03-27T15:24:46.664Z,101433.25
2023-03-27T15:27:20.174Z,101432.28
2023-03-27T15:29:58.562Z,101433.69
2023-03-27T15:32:42.366Z,101482.00
2023-03-27T15:35:15.482Z,101485.69
2023-03-27T15:37:42.885Z,101468.84
2023-03-27T15:40:26.557Z,101470.59
2023-03-27T15:43:04.351Z,101486.56
2023-03-27T15:45:38.292Z,101496.75
2023-03-27T15:48:26.901Z,101500.16
2023-03-27T15:51:06.657Z,101488.44
2023-03-27T15:53:39.583Z,101487.09
2023-03-27T15:56:13.756Z,101482.81
2023-03-27T15:58:51.498Z,101512.66
2023-03-27T16:01:22.534Z,101528.59
2023-03-27T16:03:51.564Z,101546.31
2023-03-27T16:06:32.597Z,101551.59
2023-03-27T16:09:00.807Z,101561.22
2023-03-27T16:11:43.707Z,101563.56
2023-03-27T16:14:40.752Z,101589.19
2023-03-27T16:17:19.768Z,101595.44
2023-03-27T16:20:09.739Z,101603.88
2023-03-27T16:22:37.385Z,101578.06
2023-03-27T16:25:13.513Z,101592.53
2023-03-27T16:27:45.898Z,101602.72
2023-03-27T16:30:26.836Z,101629.28
2023-03-27T16:32:53.815Z,101636.53
2023-03-27T16:35:20.643Z,101641.13
2023-03-27T16:37:47.826Z,101649.66
2023-03-27T16:40:15.620Z,101651.38
2023-03-27T16:42:42.406Z,101648.38
2023-03-27T16:45:09.368Z,101673.44
2023-03-27T16:47:36.274Z,101689.78
2023-03-27T16:52:32.997Z,101681.50
2023-03-27T16:54:59.711Z,101688.47
2023-03-27T16:57:26.460Z,101690.66
2023-03-27T16:59:53.142Z,101692.44
2023-03-27T17:02:22.010Z,101717.78
2023-03-27T17:04:48.784Z,101741.06
2023-03-27T17:07:15.968Z,101748.41
2023-03-27T17:09:42.605Z,101735.81
2023-03-27T17:12:11.266Z,101741.22
2023-03-27T17:14:37.982Z,101743.84
2023-03-27T17:17:04.775Z,101736.47
2023-03-27T17:19:31.723Z,101737.31
2023-03-27T17:21:58.379Z,101736.34
2023-03-27T17:24:25.127Z,101748.03
2023-03-27T17:26:51.840Z,101777.22
2023-03-27T17:29:18.943Z,101776.63
2023-03-27T17:31:46.110Z,101771.66
2023-03-27T17:34:13.293Z,101753.34
2023-03-27T17:36:45.239Z,101728.47
2023-03-27T17:39:16.405Z,101727.50
2023-03-27T17:41:43.127Z,101711.25
2023-03-27T17:44:11.458Z,101718.56
2023-03-27T17:46:38.159Z,101726.50
2023-03-27T17:49:05.114Z,101716.56
2023-03-27T17:51:31.844Z,101716.22
2023-03-27T17:53:58.581Z,101710.06
2023-03-27T17:56:25.392Z,101707.31
2023-03-27T17:58:52.087Z,101706.81
2023-03-27T18:01:23.829Z,101702.09
2023-03-27T18:03:51.200Z,101679.34
2023-03-27T18:06:18.478Z,101690.97
2023-03-27T18:08:46.768Z,101698.00
2023-03-27T18:11:15.560Z,101694.31
2023-03-27T18:13:42.875Z,101692.47
2023-03-27T18:16:10.715Z,101699.59
2023-03-27T18:18:39.229Z,101694.25
2023-03-27T18:21:06.594Z,101696.75
2023-03-27T18:23:34.935Z,101692.06
2023-03-27T18:26:06.640Z,101714.53
2023-03-27T18:28:34.352Z,101706.56
2023-03-27T18:31:03.590Z,101701.94
2023-03-27T18:33:30.352Z,101702.97
2023-03-27T18:35:58.217Z,101695.56
2023-03-27T18:38:27.120Z,101696.44
2023-03-27T18:40:56.880Z,101694.56
2023-03-27T18:43:24.034Z,101700.69
2023-03-27T18:46:04.766Z,101709.75
2023-03-27T18:48:31.902Z,101699.88
2023-03-27T18:51:01.132Z,101712.34
2023-03-27T18:53:28.363Z,101714.09
2023-03-27T18:55:55.504Z,101717.78
2023-03-27T18:58:27.590Z,101710.81
2023-03-27T19:00:57.862Z,101712.50
2023-03-27T19:03:26.778Z,101708.06
2023-03-27T19:05:53.734Z,101715.34
2023-03-27T19:08:22.011Z,101718.81
2023-03-27T19:10:49.176Z,101713.34
2023-03-27T19:13:16.088Z,101722.31
2023-03-27T19:15:42.859Z,101720.41
2023-03-27T19:18:09.718Z,101721.38
2023-03-27T19:20:36.619Z,101721.13
2023-03-27T19:23:04.041Z,101721.38
2023-03-27T19:25:34.061Z,101724.00
2023-03-27T19:28:01.792Z,101721.41
2023-03-27T19:30:29.283Z,101729.38
2023-03-27T19:32:58.029Z,101734.72
2023-03-27T19:35:26.585Z,101738.47
2023-03-27T19:37:54.419Z,101741.25
2023-03-27T19:40:21.669Z,101743.78
2023-03-27T19:42:48.741Z,101744.78
2023-03-27T19:45:15.686Z,101739.50
2023-03-27T19:47:43.480Z,101745.09
2023-03-27T19:50:14.580Z,101754.06
2023-03-27T19:52:42.520Z,101752.34
2023-03-27T19:55:09.446Z,101755.00
2023-03-27T19:57:36.135Z,101747.88
2023-03-27T20:00:03.501Z,101751.72
2023-03-27T20:02:30.591Z,101747.13
2023-03-27T20:04:59.064Z,101753.22
2023-03-27T20:07:26.185Z,101750.56
2023-03-27T20:09:52.849Z,101752.25
2023-03-27T20:12:19.851Z,101753.31
2023-03-27T20:14:58.147Z,101750.56
2023-03-27T20:17:33.496Z,101755.94
2023-03-27T20:20:00.744Z,101756.00
2023-03-27T20:22:29.739Z,101755.16
2023-03-27T20:24:56.487Z,101754.19
2023-03-27T20:27:23.136Z,101762.03
2023-03-27T20:29:49.873Z,101759.50
2023-03-27T20:32:16.648Z,101764.28
2023-03-27T20:34:46.332Z,101767.81
2023-03-27T20:37:13.213Z,101765.13
2023-03-27T20:39:47.240Z,101761.50
2023-03-27T20:42:15.918Z,101764.19
2023-03-27T20:44:44.440Z,101758.53
2023-03-27T20:47:12.451Z,101770.09
2023-03-27T20:49:42.820Z,101768.34
2023-03-27T20:52:13.360Z,101770.19
2023-03-27T20:54:40.682Z,101775.44
2023-03-27T20:57:07.758Z,101777.91
2023-03-27T20:59:34.700Z,101779.41
2023-03-27T21:02:01.694Z,101791.66
2023-03-27T21:04:31.483Z,101808.69
2023-03-27T21:06:58.922Z,101812.44
2023-03-27T21:09:27.275Z,101816.09
2023-03-27T21:11:55.338Z,101866.34
2023-03-27T21:14:22.430Z,101837.22
2023-03-27T21:16:49.240Z,101807.09
2023-03-27T21:19:17.153Z,101771.22
2023-03-27T21:21:43.916Z,101779.44
2023-03-27T21:24:11.018Z,101776.09
2023-03-27T21:26:37.706Z,101773.53
2023-03-27T21:29:04.878Z,101757.56
2023-03-27T21:31:31.739Z,101748.59
2023-03-27T21:33:58.520Z,101754.75
2023-03-27T21:36:27.994Z,101743.44
2023-03-27T21:38:56.522Z,101738.16
2023-03-27T21:41:23.837Z,101743.44
2023-03-27T21:43:50.706Z,101743.50
2023-03-27T21:46:17.510Z,101735.53
2023-03-27T21:48:49.435Z,101740.03
2023-03-27T21:51:16.195Z,101748.97
2023-03-27T21:53:42.907Z,101741.88
2023-03-27T21:56:09.661Z,101746.41
2023-03-27T21:58:36.332Z,101738.28
2023-03-27T22:01:03.805Z,101749.03
2023-03-27T22:03:30.880Z,101745.38
2023-03-27T22:06:11.625Z,101751.66
2023-03-27T22:08:40.589Z,101748.97
2023-03-27T22:11:07.315Z,101756.31
2023-03-27T22:13:38.081Z,101759.94
2023-03-27T22:16:13.857Z,101769.78
2023-03-27T22:18:41.362Z,101767.22
2023-03-27T22:21:25.523Z,101767.19
2023-03-27T22:23:53.543Z,101769.78
2023-03-27T22:26:22.533Z,101774.28
2023-03-27T22:28:49.431Z,101778.94
2023-03-27T22:31:16.172Z,101782.59
2023-03-27T22:33:42.814Z,101784.34
2023-03-27T22:36:11.717Z,101786.06
2023-03-27T22:38:38.938Z,101784.28
2023-03-27T22:41:07.169Z,101802.84
2023-03-27T22:43:34.545Z,101798.63
2023-03-27T22:46:11.574Z,101797.75
2023-03-27T22:48:38.611Z,101806.63
2023-03-27T22:51:06.081Z,101813.75
2023-03-27T22:53:33.558Z,101824.50
2023-03-27T22:56:01.788Z,101835.28
2023-03-27T22:58:29.440Z,101833.53
2023-03-27T23:00:56.317Z,101840.75
2023-03-27T23:03:25.664Z,101846.88
2023-03-27T23:05:53.347Z,101849.59
2023-03-27T23:08:23.929Z,101856.72
2023-03-27T23:10:55.167Z,101858.53
2023-03-27T23:13:22.335Z,101857.63
2023-03-27T23:15:51.042Z,101868.34
2023-03-27T23:18:23.592Z,101865.69
2023-03-27T23:20:55.643Z,101871.13
2023-03-27T23:23:22.918Z,101876.53
2023-03-27T23:25:50.917Z,101883.81
2023-03-27T23:28:17.797Z,101883.66
2023-03-27T23:30:56.257Z,101890.97
2023-03-27T23:33:25.331Z,101884.81
2023-03-27T23:36:02.130Z,101899.19
2023-03-27T23:38:29.153Z,101900.91
2023-03-27T23:40:57.587Z,101903.63
2023-03-27T23:43:25.459Z,101920.53
2023-03-27T23:45:52.415Z,101925.94
2023-03-27T23:48:19.417Z,101932.13
2023-03-27T23:50:46.249Z,101933.84
2023-03-27T23:53:12.930Z,101947.16
2023-03-27T23:55:40.079Z,101948.09
2023-03-27T23:58:06.822Z,101954.38
